createdAt,value
2022-11-03T00:00:24.703Z,62.18
2022-11-03T00:01:26.571Z,62.03
2022-11-03T00:02:28.493Z,61.82
2022-11-03T00:03:30.327Z,61.39
2022-11-03T00:04:32.157Z,61.40
2022-11-03T00:05:33.964Z,61.39
2022-11-03T00:06:35.880Z,61.44
2022-11-03T00:07:37.691Z,61.46
2022-11-03T00:08:39.568Z,61.35
2022-11-03T00:09:41.392Z,61.19
2022-11-03T00:10:43.477Z,61.13
2022-11-03T00:11:45.319Z,61.10
2022-11-03T00:12:47.166Z,61.10
2022-11-03T00:13:48.999Z,61.04
2022-11-03T00:14:50.817Z,61.03
2022-11-03T00:15:52.647Z,61.05
2022-11-03T00:16:54.589Z,61.18
2022-11-03T00:17:56.423Z,61.16
2022-11-03T00:18:58.280Z,61.22
2022-11-03T00:20:00.099Z,61.18
2022-11-03T00:21:01.931Z,61.23
2022-11-03T00:22:03.740Z,61.29
2022-11-03T00:23:05.839Z,61.24
2022-11-03T00:24:07.836Z,61.17
2022-11-03T00:25:09.641Z,61.15
2022-11-03T00:26:12.675Z,61.20
2022-11-03T00:27:14.510Z,61.20
2022-11-03T00:28:16.340Z,61.06
2022-11-03T00:29:18.197Z,60.94
2022-11-03T00:30:20.013Z,60.93
2022-11-03T00:31:21.851Z,60.96
2022-11-03T00:32:23.667Z,60.92
2022-11-03T00:33:25.557Z,60.92
2022-11-03T00:34:27.429Z,61.05
2022-11-03T00:35:29.241Z,61.08
2022-11-03T00:36:31.107Z,61.06
2022-11-03T00:37:32.918Z,60.99
2022-11-03T00:38:34.731Z,61.01
2022-11-03T00:39:36.590Z,60.86
2022-11-03T00:40:38.414Z,60.90
2022-11-03T00:41:40.256Z,60.92
2022-11-03T00:42:42.072Z,60.79
2022-11-03T00:43:43.881Z,60.85
2022-11-03T00:44:45.756Z,60.75
2022-11-03T00:45:47.578Z,60.60
2022-11-03T00:46:49.490Z,60.46
2022-11-03T00:47:51.308Z,60.24
2022-11-03T00:48:53.438Z,60.08
2022-11-03T00:49:55.296Z,59.97
2022-11-03T00:50:57.213Z,59.86
2022-11-03T00:51:59.041Z,59.74
2022-11-03T00:53:00.870Z,59.72
2022-11-03T00:54:02.684Z,59.74
2022-11-03T00:55:04.530Z,59.69
2022-11-03T00:56:06.865Z,59.66
2022-11-03T00:57:08.686Z,59.58
2022-11-03T00:58:10.502Z,59.49
2022-11-03T00:59:12.334Z,59.46
2022-11-03T01:00:14.324Z,59.41
2022-11-03T01:01:16.255Z,59.43
2022-11-03T01:02:18.258Z,59.44
2022-11-03T01:03:20.116Z,59.54
2022-11-03T01:04:22.081Z,59.56
2022-11-03T01:05:23.946Z,59.67
2022-11-03T01:06:25.768Z,59.71
2022-11-03T01:07:27.579Z,59.91
2022-11-03T01:08:29.397Z,60.02
2022-11-03T01:09:31.213Z,60.09
2022-11-03T01:10:33.083Z,60.21
2022-11-03T01:11:34.915Z,60.29
2022-11-03T01:12:36.731Z,60.31
2022-11-03T01:13:38.539Z,60.33
2022-11-03T01:14:40.362Z,60.23
2022-11-03T01:15:42.328Z,60.34
2022-11-03T01:16:44.233Z,60.47
2022-11-03T01:17:46.052Z,60.50
2022-11-03T01:18:47.877Z,60.36
2022-11-03T01:19:49.722Z,60.23
2022-11-03T01:20:51.685Z,59.98
2022-11-03T01:21:53.504Z,59.92
2022-11-03T01:22:55.339Z,59.91
2022-11-03T01:23:57.174Z,59.83
2022-11-03T01:24:58.979Z,59.69
2022-11-03T01:26:00.836Z,59.61
2022-11-03T01:27:02.656Z,59.53
2022-11-03T01:29:06.195Z,59.64
2022-11-03T01:30:08.826Z,59.60
2022-11-03T01:31:10.679Z,59.63
2022-11-03T01:32:12.499Z,59.66
2022-11-03T01:33:14.331Z,59.79
2022-11-03T01:34:16.165Z,59.82
2022-11-03T01:35:18.013Z,60.38
2022-11-03T01:36:20.293Z,60.38
2022-11-03T01:37:22.140Z,60.05
2022-11-03T01:38:23.941Z,59.98
2022-11-03T01:39:25.762Z,59.85
2022-11-03T01:40:27.577Z,59.76
2022-11-03T01:41:29.445Z,59.77
2022-11-03T01:42:31.277Z,59.83
2022-11-03T01:43:33.096Z,59.81
2022-11-03T01:44:34.913Z,59.83
2022-11-03T01:45:36.744Z,59.92
2022-11-03T01:46:38.727Z,60.00
2022-11-03T01:47:40.554Z,60.16
2022-11-03T01:48:42.373Z,60.19
2022-11-03T01:49:44.197Z,60.17
2022-11-03T01:50:46.207Z,60.27
2022-11-03T01:51:48.080Z,60.25
2022-11-03T01:52:49.903Z,60.27
2022-11-03T01:53:51.730Z,60.27
2022-11-03T01:54:53.562Z,60.19
2022-11-03T01:55:55.377Z,60.12
2022-11-03T01:56:57.229Z,60.23
2022-11-03T01:57:59.050Z,60.31
2022-11-03T01:59:00.873Z,60.39
2022-11-03T02:00:02.693Z,60.30
2022-11-03T02:01:04.561Z,60.26
2022-11-03T02:02:06.440Z,60.24
2022-11-03T02:03:08.646Z,60.20
2022-11-03T02:04:10.912Z,60.07
2022-11-03T02:05:12.735Z,60.06
2022-11-03T02:06:14.763Z,60.07
2022-11-03T02:07:16.614Z,60.05
2022-11-03T02:08:18.444Z,60.22
2022-11-03T02:09:21.313Z,60.26
2022-11-03T02:10:23.334Z,60.14
2022-11-03T02:11:25.160Z,60.18
2022-11-03T02:12:27.004Z,60.15
2022-11-03T02:13:28.836Z,60.05
2022-11-03T02:14:30.658Z,60.18
2022-11-03T02:15:32.482Z,60.11
2022-11-03T02:16:35.110Z,59.95
2022-11-03T02:17:36.975Z,60.01
2022-11-03T02:18:38.767Z,59.96
2022-11-03T02:19:40.581Z,59.98
2022-11-03T02:20:42.410Z,60.08
2022-11-03T02:21:44.493Z,60.17
2022-11-03T02:22:46.352Z,60.03
2022-11-03T02:23:48.162Z,59.96
2022-11-03T02:24:53.816Z,59.89
2022-11-03T02:25:53.580Z,59.81
2022-11-03T02:26:55.482Z,59.71
2022-11-03T02:27:57.326Z,59.71
2022-11-03T02:28:59.142Z,59.70
2022-11-03T02:30:00.938Z,59.65
2022-11-03T02:31:02.741Z,59.48
2022-11-03T02:32:04.547Z,59.41
2022-11-03T02:33:06.731Z,59.41
2022-11-03T02:34:08.729Z,59.29
2022-11-03T02:35:10.544Z,59.13
2022-11-03T02:36:14.341Z,59.04
2022-11-03T02:37:16.316Z,58.97
2022-11-03T02:38:18.145Z,58.86
2022-11-03T02:39:19.934Z,58.78
2022-11-03T02:40:21.749Z,58.70
2022-11-03T02:41:23.578Z,58.61
2022-11-03T02:42:25.392Z,58.55
2022-11-03T02:43:27.254Z,58.51
2022-11-03T02:44:29.071Z,58.50
2022-11-03T02:45:30.885Z,58.62
2022-11-03T02:46:32.811Z,58.74
2022-11-03T02:47:34.932Z,58.75
2022-11-03T02:48:36.785Z,58.72
2022-11-03T02:49:38.589Z,58.62
2022-11-03T02:50:40.492Z,58.58
2022-11-03T02:51:42.292Z,58.54
2022-11-03T02:52:44.106Z,58.60
2022-11-03T02:53:45.974Z,58.52
2022-11-03T02:54:47.800Z,58.43
2022-11-03T02:55:49.614Z,58.35
2022-11-03T02:56:51.529Z,58.23
2022-11-03T02:57:53.332Z,58.12
2022-11-03T02:58:55.215Z,57.98
2022-11-03T02:59:57.174Z,57.84
2022-11-03T03:00:59.035Z,57.74
2022-11-03T03:02:01.043Z,57.63
2022-11-03T03:03:03.224Z,57.49
2022-11-03T03:04:05.206Z,57.37
2022-11-03T03:05:07.001Z,57.24
2022-11-03T03:06:09.031Z,57.15
2022-11-03T03:07:10.864Z,57.07
2022-11-03T03:08:12.696Z,57.02
2022-11-03T03:09:14.562Z,56.89
2022-11-03T03:10:16.478Z,56.83
2022-11-03T03:11:18.297Z,56.73
2022-11-03T03:12:20.123Z,56.69
2022-11-03T03:13:21.936Z,56.60
2022-11-03T03:14:23.772Z,56.51
2022-11-03T03:15:25.784Z,56.45
2022-11-03T03:16:27.601Z,56.38
2022-11-03T03:17:29.396Z,56.34
2022-11-03T03:18:31.205Z,56.27
2022-11-03T03:19:33.068Z,56.10
2022-11-03T03:20:35.300Z,55.89
2022-11-03T03:21:37.119Z,55.74
2022-11-03T03:22:38.947Z,55.60
2022-11-03T03:23:40.789Z,55.46
2022-11-03T03:24:42.644Z,55.35
2022-11-03T03:25:44.449Z,55.29
2022-11-03T03:26:46.355Z,55.28
2022-11-03T03:27:48.169Z,55.24
2022-11-03T03:28:49.966Z,55.18
2022-11-03T03:29:52.794Z,55.17
2022-11-03T03:30:54.630Z,55.15
2022-11-03T03:31:56.473Z,55.13
2022-11-03T03:32:58.308Z,54.87
2022-11-03T03:34:04.788Z,54.87
2022-11-03T03:35:03.787Z,54.99
2022-11-03T03:36:05.708Z,54.87
2022-11-03T03:37:07.528Z,54.81
2022-11-03T03:38:09.550Z,54.77
2022-11-03T03:39:11.415Z,54.75
2022-11-03T03:40:13.865Z,54.75
2022-11-03T03:41:16.668Z,54.73
2022-11-03T03:42:18.508Z,54.72
2022-11-03T03:43:20.351Z,54.69
2022-11-03T03:44:22.150Z,54.65
2022-11-03T03:45:24.386Z,54.61
2022-11-03T03:46:27.215Z,54.62
2022-11-03T03:47:29.037Z,54.56
2022-11-03T03:48:30.828Z,54.47
2022-11-03T03:49:32.631Z,54.37
2022-11-03T03:50:34.583Z,54.34
2022-11-03T03:51:36.390Z,54.30
2022-11-03T03:52:39.226Z,54.24
2022-11-03T03:53:41.050Z,54.20
2022-11-03T03:54:42.911Z,54.10
2022-11-03T03:55:44.785Z,54.09
2022-11-03T03:56:46.699Z,54.06
2022-11-03T03:57:48.519Z,54.05
2022-11-03T03:58:50.359Z,54.02
2022-11-03T03:59:52.171Z,54.01
2022-11-03T04:00:54.139Z,53.96
2022-11-03T04:01:56.102Z,53.95
2022-11-03T04:02:57.946Z,53.94
2022-11-03T04:03:59.753Z,53.98
2022-11-03T04:05:01.571Z,53.97
2022-11-03T04:06:03.431Z,53.92
2022-11-03T04:07:05.263Z,53.78
2022-11-03T04:08:07.479Z,53.68
2022-11-03T04:09:09.515Z,53.58
2022-11-03T04:10:12.341Z,53.40
2022-11-03T04:11:14.226Z,53.33
2022-11-03T04:12:15.999Z,53.26
2022-11-03T04:13:17.816Z,53.19
2022-11-03T04:14:19.639Z,53.14
2022-11-03T04:15:21.432Z,53.17
2022-11-03T04:16:23.319Z,53.16
2022-11-03T04:17:25.169Z,53.18
2022-11-03T04:18:27.009Z,53.18
2022-11-03T04:19:28.836Z,53.16
2022-11-03T04:20:30.767Z,53.22
2022-11-03T04:21:32.646Z,53.27
2022-11-03T04:22:34.488Z,53.39
2022-11-03T04:23:36.315Z,53.50
2022-11-03T04:24:38.151Z,53.63
2022-11-03T04:25:40.077Z,53.74
2022-11-03T04:26:42.063Z,53.85
2022-11-03T04:27:43.894Z,53.92
2022-11-03T04:28:45.729Z,53.99
2022-11-03T04:29:47.621Z,54.27
2022-11-03T04:30:53.319Z,54.27
2022-11-03T04:31:53.402Z,54.14
2022-11-03T04:32:55.253Z,54.17
2022-11-03T04:33:57.091Z,54.22
2022-11-03T04:34:58.952Z,54.25
2022-11-03T04:36:00.777Z,54.28
2022-11-03T04:37:02.643Z,54.34
2022-11-03T04:38:04.766Z,54.41
2022-11-03T04:39:06.922Z,54.49
2022-11-03T04:40:08.982Z,54.49
2022-11-03T04:41:10.832Z,54.54
2022-11-03T04:42:12.738Z,54.51
2022-11-03T04:43:14.569Z,54.53
2022-11-03T04:44:16.398Z,54.50
2022-11-03T04:45:19.516Z,54.48
2022-11-03T04:46:21.439Z,54.47
2022-11-03T04:47:23.291Z,54.45
2022-11-03T04:48:25.118Z,54.48
2022-11-03T04:49:26.943Z,54.52
2022-11-03T04:50:28.821Z,54.55
2022-11-03T04:51:30.635Z,54.44
2022-11-03T04:52:32.519Z,54.67
2022-11-03T04:53:34.362Z,54.72
2022-11-03T04:54:36.203Z,54.75
2022-11-03T04:55:38.042Z,54.80
2022-11-03T04:56:39.897Z,54.92
2022-11-03T04:57:41.782Z,54.96
2022-11-03T04:58:43.645Z,55.01
2022-11-03T09:38:45.006Z,56.67
2022-11-03T09:39:46.839Z,56.61
2022-11-03T09:41:58.591Z,56.18
2022-11-03T09:42:54.033Z,55.95
2022-11-03T09:43:55.915Z,55.52
2022-11-03T09:44:57.754Z,55.23
2022-11-03T09:45:59.595Z,54.86
2022-11-03T09:47:01.530Z,54.86
2022-11-03T09:48:03.357Z,54.36
2022-11-03T09:49:05.249Z,54.07
2022-11-03T09:50:07.185Z,53.92
2022-11-03T09:51:09.023Z,53.78
2022-11-03T09:52:10.857Z,53.58
2022-11-03T09:53:12.705Z,53.41
2022-11-03T09:54:14.646Z,53.31
2022-11-03T09:55:16.483Z,53.20
2022-11-03T09:56:18.323Z,53.10
2022-11-03T09:57:20.160Z,52.94
2022-11-03T09:58:21.997Z,52.74
2022-11-03T09:59:23.872Z,52.52
2022-11-03T10:00:25.826Z,52.35
2022-11-03T10:01:27.769Z,52.61
2022-11-03T10:02:29.800Z,52.12
2022-11-03T10:03:31.645Z,52.12
2022-11-03T10:04:33.540Z,51.98
2022-11-03T10:05:35.377Z,51.89
2022-11-03T10:06:37.618Z,51.79
2022-11-03T10:07:39.642Z,51.68
2022-11-03T10:08:41.483Z,51.45
2022-11-03T10:09:43.378Z,51.16
2022-11-03T10:10:45.220Z,50.43
2022-11-03T10:11:47.054Z,50.20
2022-11-03T10:12:48.877Z,50.22
2022-11-03T10:13:50.730Z,50.29
2022-11-03T10:14:52.610Z,50.16
2022-11-03T10:15:54.452Z,49.70
2022-11-03T10:16:56.291Z,49.83
2022-11-03T10:17:58.136Z,49.83
2022-11-03T10:18:59.974Z,49.80
2022-11-03T10:20:01.955Z,49.69
2022-11-03T10:21:03.803Z,49.46
2022-11-03T10:22:05.637Z,49.12
2022-11-03T10:23:07.754Z,48.89
2022-11-03T10:24:09.920Z,48.59
2022-11-03T10:25:11.904Z,48.29
2022-11-03T10:26:14.140Z,47.79
2022-11-03T10:27:15.957Z,48.12
2022-11-03T10:28:17.827Z,48.23
2022-11-03T10:30:22.104Z,48.01
2022-11-03T10:31:23.944Z,48.11
2022-11-03T10:32:25.792Z,48.15
2022-11-03T10:33:33.841Z,48.13
2022-11-03T10:34:32.655Z,48.13
2022-11-03T10:35:34.554Z,47.70
2022-11-03T10:36:36.489Z,47.67
2022-11-03T10:37:38.325Z,47.64
2022-11-03T10:38:40.167Z,47.48
2022-11-03T10:39:42.006Z,47.44
2022-11-03T10:40:48.117Z,47.37
2022-11-03T10:41:47.537Z,47.47
2022-11-03T10:42:49.372Z,47.66
2022-11-03T10:43:51.197Z,47.74
2022-11-03T10:44:53.069Z,47.74
2022-11-03T10:45:54.976Z,47.70
2022-11-03T10:46:56.810Z,47.29
2022-11-03T10:48:00.699Z,47.17
2022-11-03T10:49:02.465Z,47.08
2022-11-03T10:50:06.388Z,46.79
2022-11-03T10:51:08.257Z,46.76
2022-11-03T10:52:10.114Z,46.74
2022-11-03T10:53:12.064Z,46.66
2022-11-03T10:54:13.857Z,46.47
2022-11-03T10:55:19.171Z,46.15
2022-11-03T10:56:19.377Z,45.60
2022-11-03T10:57:21.251Z,45.72
2022-11-03T10:58:23.064Z,44.95
2022-11-03T10:59:24.885Z,45.15
2022-11-03T11:00:26.704Z,45.28
2022-11-03T11:01:28.890Z,44.54
2022-11-03T11:02:31.088Z,44.80
2022-11-03T11:03:33.070Z,45.20
2022-11-03T11:04:34.953Z,44.86
2022-11-03T11:05:37.017Z,44.97
2022-11-03T11:06:38.879Z,44.69
2022-11-03T11:07:40.832Z,44.71
2022-11-03T11:08:42.731Z,43.82
2022-11-03T11:09:44.652Z,43.90
2022-11-03T11:10:46.481Z,43.77
2022-11-03T11:11:48.463Z,43.79
2022-11-03T11:12:50.376Z,43.81
2022-11-03T11:13:52.190Z,43.71
2022-11-03T11:14:54.016Z,43.64
2022-11-03T11:15:55.865Z,43.41
2022-11-03T11:16:57.949Z,43.54
2022-11-03T11:18:00.125Z,42.72
2022-11-03T11:19:01.965Z,42.92
2022-11-03T11:20:03.855Z,43.01
2022-11-03T11:21:05.675Z,42.88
2022-11-03T11:22:07.546Z,42.74
2022-11-03T11:23:09.928Z,42.55
2022-11-03T11:24:12.125Z,42.73
2022-11-03T11:25:13.954Z,42.82
2022-11-03T11:26:15.889Z,42.64
2022-11-03T11:27:17.794Z,42.77
2022-11-03T11:28:19.651Z,42.92
2022-11-03T11:29:21.471Z,42.97
2022-11-03T11:30:23.349Z,42.58
2022-11-03T11:31:25.484Z,42.89
2022-11-03T11:32:27.366Z,43.09
2022-11-03T11:33:29.201Z,43.11
2022-11-03T11:34:31.050Z,42.90
2022-11-03T11:35:32.894Z,42.67
2022-11-03T11:36:34.729Z,42.59
2022-11-03T11:37:36.601Z,42.39
2022-11-03T11:38:38.457Z,42.32
2022-11-03T11:39:40.284Z,42.42
2022-11-03T11:40:42.147Z,42.51
2022-11-03T11:41:43.970Z,42.52
2022-11-03T11:42:45.861Z,42.61
2022-11-03T11:43:47.692Z,41.72
2022-11-03T11:44:49.513Z,41.36
2022-11-03T11:45:51.351Z,41.86
2022-11-03T11:46:53.289Z,42.32
2022-11-03T11:47:55.147Z,42.55
2022-11-03T11:48:56.974Z,42.36
2022-11-03T11:49:59.118Z,42.80
2022-11-03T11:51:03.902Z,43.01
2022-11-03T11:52:05.934Z,43.37
2022-11-03T11:53:09.630Z,43.47
2022-11-03T11:54:19.527Z,43.39
2022-11-03T11:55:19.495Z,43.39
2022-11-03T11:56:27.486Z,43.46
2022-11-03T11:57:31.540Z,43.45
2022-11-03T11:58:39.311Z,43.50
2022-11-03T11:59:46.032Z,43.45
2022-11-03T12:00:50.173Z,43.52
2022-11-03T12:01:52.727Z,43.50
2022-11-03T12:02:58.398Z,43.56
2022-11-03T12:04:04.397Z,43.61
2022-11-03T12:05:11.484Z,43.62
2022-11-03T12:06:14.970Z,43.53
2022-11-03T12:07:21.619Z,43.42
2022-11-03T12:08:20.760Z,43.43
2022-11-03T12:09:22.889Z,43.36
2022-11-03T12:10:25.017Z,43.61
2022-11-03T12:11:26.889Z,43.70
2022-11-03T12:12:32.468Z,43.60
2022-11-03T12:13:36.957Z,43.30
2022-11-03T12:14:38.906Z,43.34
2022-11-03T12:15:41.331Z,43.10
2022-11-03T12:16:44.373Z,42.95
2022-11-03T12:17:46.506Z,42.85
2022-11-03T12:19:02.266Z,42.85
2022-11-03T12:20:12.094Z,42.99
2022-11-03T12:21:16.111Z,43.27
2022-11-03T12:22:19.484Z,43.43
2022-11-03T12:23:21.455Z,43.56
2022-11-03T12:24:25.058Z,43.63
2022-11-03T12:25:28.798Z,43.69
2022-11-03T12:26:30.816Z,43.70
2022-11-03T12:27:34.581Z,43.77
2022-11-03T12:28:38.901Z,43.64
2022-11-03T12:29:41.595Z,43.51
2022-11-03T12:30:43.590Z,43.61
2022-11-03T12:31:45.482Z,43.69
2022-11-03T12:32:47.223Z,43.85
2022-11-03T12:33:49.028Z,43.94
2022-11-03T12:34:50.938Z,43.97
2022-11-03T12:35:54.158Z,43.85
2022-11-03T12:36:56.544Z,43.68
2022-11-03T12:37:58.551Z,43.58
2022-11-03T12:39:00.900Z,43.58
2022-11-03T12:40:04.731Z,43.73
2022-11-03T12:41:06.598Z,43.94
2022-11-03T12:42:09.295Z,44.08
2022-11-03T12:43:14.040Z,44.14
2022-11-03T12:44:16.781Z,44.04
2022-11-03T12:45:22.408Z,44.03
2022-11-03T12:46:24.471Z,44.01
2022-11-03T12:47:26.348Z,43.92
2022-11-03T12:48:28.165Z,44.04
2022-11-03T12:49:29.991Z,44.27
2022-11-03T12:50:31.807Z,44.39
2022-11-03T12:51:33.666Z,44.34
2022-11-03T12:52:35.497Z,44.20
2022-11-03T12:53:37.318Z,44.14
2022-11-03T12:54:39.146Z,43.94
2022-11-03T12:55:43.776Z,43.96
2022-11-03T12:56:46.417Z,43.96
2022-11-03T12:57:48.258Z,43.94
2022-11-03T12:58:50.267Z,44.08
2022-11-03T12:59:52.068Z,44.28
2022-11-03T13:00:56.357Z,44.37
2022-11-03T13:01:57.870Z,44.35
2022-11-03T13:02:59.781Z,44.35
2022-11-03T13:04:01.617Z,44.32
2022-11-03T13:05:03.425Z,44.29
2022-11-03T13:06:05.490Z,44.41
2022-11-03T13:07:07.453Z,44.60
2022-11-03T13:08:10.443Z,44.86
2022-11-03T13:09:12.272Z,45.04
2022-11-03T13:10:14.198Z,45.26
2022-11-03T13:11:16.023Z,45.40
2022-11-03T13:12:17.882Z,45.52
2022-11-03T13:13:19.692Z,45.77
2022-11-03T13:14:21.515Z,45.97
2022-11-03T13:15:23.341Z,46.10
2022-11-03T13:16:25.156Z,46.23
2022-11-03T13:17:40.293Z,46.29
2022-11-03T13:18:33.310Z,46.43
2022-11-03T13:19:35.101Z,46.54
2022-11-03T13:20:36.927Z,46.68
2022-11-03T13:21:38.749Z,46.79
2022-11-03T13:22:40.589Z,46.88
2022-11-03T13:23:42.420Z,47.06
2022-11-03T13:24:44.231Z,47.19
2022-11-03T13:25:46.060Z,47.28
2022-11-03T13:26:48.878Z,47.37
2022-11-03T13:27:51.483Z,47.43
2022-11-03T13:28:53.315Z,47.46
2022-11-03T13:29:56.182Z,47.53
2022-11-03T13:30:58.091Z,47.61
2022-11-03T13:32:00.482Z,47.65
2022-11-03T13:33:02.369Z,47.77
2022-11-03T13:34:04.185Z,47.83
2022-11-03T13:35:12.389Z,47.86
2022-11-03T13:36:12.820Z,47.91
2022-11-03T13:37:14.640Z,47.98
2022-11-03T13:38:17.997Z,48.08
2022-11-03T13:39:19.848Z,48.18
2022-11-03T13:41:29.363Z,48.24
2022-11-03T13:42:31.085Z,48.27
2022-11-03T13:43:32.937Z,48.33
2022-11-03T13:44:34.730Z,48.36
2022-11-03T13:45:36.536Z,48.40
2022-11-03T13:46:39.090Z,48.41
2022-11-03T13:50:13.029Z,48.63
2022-11-03T13:50:55.302Z,48.70
2022-11-03T13:51:59.774Z,48.76
2022-11-03T13:56:24.721Z,48.99
2022-11-03T13:59:34.010Z,49.15
2022-11-03T14:00:35.956Z,49.21
2022-11-03T14:01:38.400Z,49.23
2022-11-03T14:04:48.509Z,49.10
2022-11-03T14:05:50.413Z,49.43
2022-11-03T14:06:52.710Z,49.46
2022-11-03T14:07:55.596Z,49.51
2022-11-03T14:08:57.456Z,49.54
2022-11-03T14:10:02.560Z,49.56
2022-11-03T14:11:03.020Z,49.58
2022-11-03T14:12:04.850Z,49.59
2022-11-03T14:13:06.859Z,49.59
2022-11-03T14:14:08.939Z,49.80
2022-11-03T14:15:10.867Z,49.80
2022-11-03T14:16:12.871Z,49.65
2022-11-03T14:17:14.722Z,49.68
2022-11-03T14:18:16.560Z,49.76
2022-11-03T14:19:18.395Z,49.88
2022-11-03T14:20:21.737Z,49.97
2022-11-03T14:21:26.956Z,50.01
2022-11-03T14:22:31.130Z,50.03
2022-11-03T14:23:39.505Z,50.06
2022-11-03T14:24:46.542Z,50.17
2022-11-03T14:26:00.408Z,50.20
2022-11-03T14:27:02.896Z,50.19
2022-11-03T14:28:02.694Z,50.29
2022-11-03T14:29:11.493Z,50.33
2022-11-03T14:30:15.144Z,50.46
2022-11-03T14:31:17.864Z,50.57
2022-11-03T14:32:22.853Z,50.59
2022-11-03T14:33:25.742Z,50.61
2022-11-03T14:34:29.425Z,50.67
2022-11-03T14:35:32.840Z,50.70
2022-11-03T14:36:34.806Z,50.76
2022-11-03T14:37:36.727Z,50.85
2022-11-03T14:38:38.600Z,50.81
2022-11-03T14:39:40.443Z,50.75
2022-11-03T14:40:42.353Z,50.71
2022-11-03T14:41:44.248Z,50.67
2022-11-03T14:42:46.088Z,50.67
2022-11-03T14:43:47.904Z,50.68
2022-11-03T14:44:49.834Z,50.72
2022-11-03T14:45:51.818Z,50.73
2022-11-03T14:46:54.140Z,50.75
2022-11-03T14:47:55.991Z,50.81
2022-11-03T14:48:57.814Z,50.96
2022-11-03T14:49:59.639Z,51.02
2022-11-03T14:51:01.597Z,51.00
2022-11-03T14:52:03.478Z,51.02
2022-11-03T14:53:05.315Z,51.05
2022-11-03T14:54:07.148Z,51.05
2022-11-03T14:55:08.989Z,51.05
2022-11-03T14:56:11.324Z,51.06
2022-11-03T14:57:13.200Z,51.07
2022-11-03T14:58:15.041Z,51.12
2022-11-03T14:59:16.875Z,51.22
2022-11-03T15:00:19.113Z,51.30
2022-11-03T15:01:21.075Z,51.33
2022-11-03T15:02:23.092Z,51.35
2022-11-03T15:03:24.951Z,51.33
2022-11-03T15:04:26.811Z,51.23
2022-11-03T15:05:28.626Z,51.23
2022-11-03T15:06:30.530Z,51.40
2022-11-03T15:07:32.428Z,51.45
2022-11-03T15:08:34.271Z,51.45
2022-11-03T15:09:36.094Z,51.42
2022-11-03T15:10:37.922Z,51.40
2022-11-03T15:11:39.754Z,51.39
2022-11-03T15:12:41.742Z,51.39
2022-11-03T15:13:47.105Z,51.39
2022-11-03T15:14:47.240Z,51.39
2022-11-03T15:15:49.071Z,51.39
2022-11-03T15:16:51.018Z,51.41
2022-11-03T15:17:53.003Z,51.42
2022-11-03T15:18:54.842Z,51.47
2022-11-03T15:19:56.692Z,51.44
2022-11-03T15:20:58.523Z,51.48
2022-11-03T15:22:00.512Z,51.53
2022-11-03T15:26:12.593Z,51.82
2022-11-03T15:27:14.381Z,51.98
2022-11-03T15:28:16.266Z,52.01
2022-11-03T15:29:18.109Z,52.08
2022-11-03T15:30:20.150Z,52.09
2022-11-03T15:31:22.003Z,51.75
2022-11-03T15:32:23.834Z,51.75
2022-11-03T15:33:25.719Z,52.01
2022-11-03T15:34:27.558Z,51.99
2022-11-03T15:35:29.457Z,51.98
2022-11-03T15:36:31.336Z,52.01
2022-11-03T15:37:33.193Z,51.99
2022-11-03T15:38:35.064Z,51.95
2022-11-03T15:39:36.896Z,51.95
2022-11-03T15:40:38.825Z,52.07
2022-11-03T15:41:40.682Z,52.18
2022-11-03T15:42:42.487Z,52.22
2022-11-03T15:43:44.401Z,52.29
2022-11-03T15:44:47.465Z,52.32
2022-11-03T15:45:49.334Z,52.37
2022-11-03T15:46:51.354Z,52.38
2022-11-03T15:47:58.149Z,52.42
2022-11-03T15:48:56.906Z,52.47
2022-11-03T15:49:58.715Z,52.48
2022-11-03T15:51:00.539Z,52.56
2022-11-03T15:52:02.373Z,52.58
2022-11-03T15:53:04.230Z,52.58
2022-11-03T15:54:06.090Z,52.58
2022-11-03T15:55:07.932Z,52.51
2022-11-03T15:56:10.464Z,52.46
2022-11-03T15:58:14.022Z,52.37
2022-11-03T15:59:15.936Z,52.26
2022-11-03T16:00:17.820Z,52.20
2022-11-03T16:01:19.708Z,52.13
2022-11-03T16:02:40.131Z,52.16
2022-11-03T16:03:25.426Z,52.19
2022-11-03T16:04:27.444Z,52.19
2022-11-03T16:05:29.476Z,52.20
2022-11-03T16:07:34.973Z,52.33
2022-11-03T16:08:36.879Z,52.38
2022-11-03T16:09:38.758Z,52.41
2022-11-03T16:10:44.210Z,52.44
2022-11-03T16:11:44.351Z,52.46
2022-11-03T16:12:46.172Z,52.49
2022-11-03T16:13:48.000Z,52.58
2022-11-03T16:14:49.884Z,52.59
2022-11-03T16:15:51.744Z,52.60
2022-11-03T16:16:53.643Z,52.66
2022-11-03T16:17:55.471Z,52.74
2022-11-03T16:18:57.298Z,52.66
2022-11-03T16:19:59.189Z,52.62
2022-11-03T16:21:01.111Z,52.56
2022-11-03T16:22:02.936Z,52.53
2022-11-03T16:23:04.764Z,52.58
2022-11-03T16:24:06.602Z,52.71
2022-11-03T16:25:12.713Z,52.81
2022-11-03T16:26:12.823Z,52.90
2022-11-03T16:27:14.636Z,53.00
2022-11-03T16:28:16.442Z,53.04
2022-11-03T16:29:18.287Z,52.96
2022-11-03T16:30:20.167Z,52.85
2022-11-03T16:31:22.009Z,52.81
2022-11-03T16:32:23.827Z,52.80
2022-11-03T16:33:25.657Z,52.82
2022-11-03T16:34:27.489Z,52.83
2022-11-03T16:35:29.362Z,52.83
2022-11-03T16:36:31.265Z,52.82
2022-11-03T16:37:33.095Z,52.82
2022-11-03T16:38:34.951Z,52.84
2022-11-03T16:39:36.830Z,52.85
2022-11-03T16:40:38.816Z,52.84
2022-11-03T16:41:40.647Z,52.83
2022-11-03T16:42:42.951Z,52.84
2022-11-03T16:43:44.771Z,52.84
2022-11-03T16:44:46.607Z,52.75
2022-11-03T16:45:48.506Z,52.69
2022-11-03T16:46:50.337Z,52.62
2022-11-03T16:47:52.142Z,52.56
2022-11-03T16:48:54.013Z,52.55
2022-11-03T16:49:55.928Z,52.58
2022-11-03T16:50:58.032Z,52.66
2022-11-03T16:51:59.861Z,52.65
2022-11-03T16:53:01.698Z,52.58
2022-11-03T16:54:03.539Z,52.55
2022-11-03T16:55:05.393Z,52.57
2022-11-03T16:56:07.382Z,52.65
2022-11-03T16:57:09.191Z,52.61
2022-11-03T16:58:11.004Z,52.59
2022-11-03T16:59:12.816Z,52.68
2022-11-03T17:00:15.232Z,52.69
2022-11-03T17:01:17.355Z,52.69
2022-11-03T17:02:20.301Z,52.71
2022-11-03T17:03:22.246Z,52.81
2022-11-03T17:04:24.098Z,52.91
2022-11-03T17:05:25.949Z,52.97
2022-11-03T17:06:27.834Z,53.01
2022-11-03T17:07:29.682Z,53.07
2022-11-03T17:08:51.715Z,53.15
2022-11-03T17:09:35.120Z,53.23
2022-11-03T17:10:37.076Z,53.26
2022-11-03T17:11:39.042Z,53.26
2022-11-03T17:12:40.867Z,53.24
2022-11-03T17:13:42.695Z,53.27
2022-11-03T17:14:44.534Z,53.31
2022-11-03T17:15:46.571Z,53.39
2022-11-03T17:16:50.246Z,53.36
2022-11-03T17:17:53.091Z,53.38
2022-11-03T17:18:57.002Z,53.43
2022-11-03T17:19:59.854Z,53.45
2022-11-03T17:21:01.661Z,53.53
2022-11-03T17:22:04.205Z,53.59
2022-11-03T17:23:09.121Z,53.64
2022-11-03T17:24:10.949Z,53.65
2022-11-03T17:25:13.778Z,53.65
2022-11-03T17:26:17.335Z,53.69
2022-11-03T17:27:19.184Z,53.81
2022-11-03T17:28:21.022Z,53.89
2022-11-03T17:29:24.670Z,53.87
2022-11-03T17:30:26.500Z,53.88
2022-11-03T17:31:29.654Z,53.95
2022-11-03T17:32:31.558Z,54.06
2022-11-03T17:33:35.185Z,54.16
2022-11-03T17:34:36.999Z,54.20
2022-11-03T17:35:39.872Z,54.30
2022-11-03T17:36:41.967Z,54.36
2022-11-03T17:37:43.778Z,54.44
2022-11-03T17:38:45.583Z,54.52
2022-11-03T17:39:47.397Z,54.64
2022-11-03T17:40:49.439Z,54.72
2022-11-03T17:41:52.393Z,54.80
2022-11-03T17:42:54.322Z,54.90
2022-11-03T17:43:56.155Z,54.96
2022-11-03T17:45:00.912Z,54.99
2022-11-03T17:46:04.507Z,55.06
2022-11-03T17:47:06.341Z,55.13
2022-11-03T17:48:10.045Z,55.16
2022-11-03T17:49:12.134Z,55.19
2022-11-03T17:50:15.192Z,55.25
2022-11-03T17:51:17.011Z,55.29
2022-11-03T17:52:25.029Z,55.38
2022-11-03T17:53:24.686Z,55.42
2022-11-03T17:54:26.499Z,55.48
2022-11-03T17:55:29.348Z,55.56
2022-11-03T17:56:31.428Z,55.61
2022-11-03T17:57:37.523Z,55.63
2022-11-03T17:58:45.849Z,55.69
2022-11-03T17:59:44.238Z,55.71
2022-11-03T18:00:46.065Z,55.75
2022-11-03T18:01:49.823Z,55.77
2022-11-03T18:02:52.068Z,55.82
2022-11-03T18:03:54.328Z,55.85
2022-11-03T18:04:57.983Z,55.76
2022-11-03T18:06:00.396Z,55.77
2022-11-03T18:07:04.042Z,55.80
2022-11-03T18:08:07.944Z,55.82
2022-11-03T18:09:10.048Z,55.88
2022-11-03T18:10:14.569Z,55.83
2022-11-03T18:11:18.219Z,55.86
2022-11-03T18:12:20.042Z,55.88
2022-11-03T18:13:23.850Z,55.93
2022-11-03T18:14:25.718Z,55.94
2022-11-03T18:15:27.586Z,55.93
2022-11-03T18:16:29.513Z,55.89
2022-11-03T18:17:34.270Z,55.91
2022-11-03T18:18:36.101Z,55.93
2022-11-03T18:19:40.770Z,55.96